Time;durP1;ratioP1;P1;durP2;ratioP2;P2;SDS_P1;SDS_P2;PMS_P1;PMS_P2;Temp;Humidity;BMP_temperature;BMP_pressure;BME280_temperature;BME280_humidity;BME280_pressure;Samples;Min_cycle;Max_cycle;Signal;HPM_P1;HPM_P2
2021/03/08 00:01:58;;;;;;;26.07;15.27;;;;;;;;;;4998674;28;20685;-71
2021/03/08 00:04:26;;;;;;;23.07;14.33;;;;;;;;;;4998115;28;20320;-70
2021/03/08 00:06:52;;;;;;;19.47;13.03;;;;;;;;;;4998958;28;20251;-70
2021/03/08 00:09:20;;;;;;;23.83;14.33;;;;;;;;;;4998164;28;20268;-70
2021/03/08 00:11:47;;;;;;;26.10;15.07;;;;;;;;;;4999606;28;20239;-70
2021/03/08 00:14:14;;;;;;;26.63;14.87;;;;;;;;;;4999015;28;20284;-70
2021/03/08 00:16:41;;;;;;;21.43;14.20;;;;;;;;;;4998705;28;20247;-70
2021/03/08 00:19:09;;;;;;;26.10;15.10;;;;;;;;;;4996264;28;20259;-70
2021/03/08 00:21:36;;;;;;;25.57;15.27;;;;;;;;;;4999584;28;20283;-70
2021/03/08 00:24:03;;;;;;;24.60;14.83;;;;;;;;;;4998034;28;20288;-70
2021/03/08 00:26:31;;;;;;;25.00;15.27;;;;;;;;;;4998084;28;20740;-71
2021/03/08 00:29:13;;;;;;;22.07;14.73;;;;;;;;;;4998171;28;20217;-70
2021/03/08 00:31:40;;;;;;;24.97;16.03;;;;;;;;;;4999221;28;20645;-70
2021/03/08 00:34:07;;;;;;;27.70;15.47;;;;;;;;;;4997951;28;20208;-70
2021/03/08 00:36:34;;;;;;;29.83;17.00;;;;;;;;;;4998305;28;20617;-70
2021/03/08 00:39:02;;;;;;;23.70;15.03;;;;;;;;;;4997770;28;20772;-70
2021/03/08 00:41:29;;;;;;;22.27;14.63;;;;;;;;;;4998765;28;20245;-70
2021/03/08 00:43:57;;;;;;;22.33;15.03;;;;;;;;;;4998255;28;20259;-70
2021/03/08 00:46:24;;;;;;;22.40;14.67;;;;;;;;;;4999169;28;20276;-70
2021/03/08 00:48:51;;;;;;;25.47;15.87;;;;;;;;;;4998145;28;20221;-70
2021/03/08 00:51:18;;;;;;;27.70;15.17;;;;;;;;;;4997890;28;20582;-70
2021/03/08 00:53:45;;;;;;;25.13;14.40;;;;;;;;;;4998284;28;20289;-70
2021/03/08 00:56:12;;;;;;;20.97;13.97;;;;;;;;;;4997629;28;20667;-70
2021/03/08 00:58:39;;;;;;;21.23;15.37;;;;;;;;;;4998970;28;20268;-70
2021/03/08 01:01:07;;;;;;;28.10;16.37;;;;;;;;;;4997835;28;20201;-70
2021/03/08 01:03:34;;;;;;;22.27;14.60;;;;;;;;;;4996786;28;20568;-70
2021/03/08 01:06:02;;;;;;;22.07;14.20;;;;;;;;;;4998306;28;20259;-70
2021/03/08 01:08:29;;;;;;;20.63;14.60;;;;;;;;;;4997434;28;20252;-70
2021/03/08 01:10:56;;;;;;;25.87;15.27;;;;;;;;;;4968778;28;20597;-71
2021/03/08 01:13:24;;;;;;;22.53;14.60;;;;;;;;;;4978892;28;20288;-70
2021/03/08 01:15:51;;;;;;;23.00;15.83;;;;;;;;;;4977418;28;20724;-70
2021/03/08 01:18:20;;;;;;;26.97;15.90;;;;;;;;;;4979241;28;20297;-70
2021/03/08 01:20:48;;;;;;;20.63;14.27;;;;;;;;;;4977832;28;20260;-70
2021/03/08 01:23:15;;;;;;;24.13;15.03;;;;;;;;;;4979153;28;20312;-70
2021/03/08 01:25:42;;;;;;;21.90;15.10;;;;;;;;;;4976885;28;20261;-70
2021/03/08 01:28:09;;;;;;;22.43;15.70;;;;;;;;;;4976737;28;20221;-70
2021/03/08 01:30:38;;;;;;;22.90;13.93;;;;;;;;;;4978131;28;20240;-69
2021/03/08 01:33:05;;;;;;;23.17;14.07;;;;;;;;;;4977022;28;20248;-70
2021/03/08 01:35:33;;;;;;;21.20;14.10;;;;;;;;;;4976447;28;20221;-70
2021/03/08 01:38:00;;;;;;;22.33;14.67;;;;;;;;;;4978995;28;20673;-70
2021/03/08 01:40:28;;;;;;;27.23;13.60;;;;;;;;;;4977539;28;20292;-69
2021/03/08 01:42:56;;;;;;;21.00;14.27;;;;;;;;;;4978905;28;20245;-70
2021/03/08 01:45:23;;;;;;;19.03;14.17;;;;;;;;;;4969093;28;20229;-70
2021/03/08 01:47:51;;;;;;;24.93;14.40;;;;;;;;;;4978530;28;20225;-70
2021/03/08 01:50:20;;;;;;;22.87;13.90;;;;;;;;;;4977108;28;20218;-70
2021/03/08 01:52:50;;;;;;;22.40;14.13;;;;;;;;;;4976950;28;20229;-69
2021/03/08 01:55:18;;;;;;;23.90;13.93;;;;;;;;;;4977449;28;20672;-70
2021/03/08 01:57:45;;;;;;;21.47;14.37;;;;;;;;;;4976121;28;20209;-70
2021/03/08 02:00:20;;;;;;;24.97;15.00;;;;;;;;;;4966129;28;20231;-70
2021/03/08 02:02:47;;;;;;;21.53;14.47;;;;;;;;;;4978854;28;20273;-70
2021/03/08 02:05:15;;;;;;;24.80;13.93;;;;;;;;;;4976847;28;20226;-70
2021/03/08 02:07:42;;;;;;;22.33;14.33;;;;;;;;;;4976700;28;20784;-70
2021/03/08 02:10:11;;;;;;;22.37;14.30;;;;;;;;;;4986742;28;20806;-70
2021/03/08 02:12:53;;;;;;;22.77;14.27;;;;;;;;;;4997359;28;20370;-70
2021/03/08 02:15:28;;;;;;;22.10;13.97;;;;;;;;;;4990619;28;20263;-69
2021/03/08 02:17:59;;;;;;;23.07;14.17;;;;;;;;;;4998001;28;20260;-71
2021/03/08 02:20:56;;;;;;;23.07;14.03;;;;;;;;;;4998006;28;20204;-70
2021/03/08 02:23:41;;;;;;;22.40;13.17;;;;;;;;;;4999645;28;20255;-71
2021/03/08 02:26:27;;;;;;;19.07;13.07;;;;;;;;;;5000190;28;20712;-68
2021/03/08 02:29:15;;;;;;;21.67;12.90;;;;;;;;;;5000760;28;20263;-70
2021/03/08 02:31:43;;;;;;;23.47;13.37;;;;;;;;;;5001007;28;20240;-71
2021/03/08 02:34:12;;;;;;;17.93;12.50;;;;;;;;;;5001348;28;20220;-71
2021/03/08 02:36:42;;;;;;;18.73;12.87;;;;;;;;;;5000447;28;20288;-71
2021/03/08 02:39:12;;;;;;;21.10;12.83;;;;;;;;;;4999264;28;20377;-71
2021/03/08 02:41:40;;;;;;;16.87;11.97;;;;;;;;;;5001368;28;20292;-70
2021/03/08 02:44:10;;;;;;;21.70;13.10;;;;;;;;;;5000469;28;20284;-70
2021/03/08 02:46:38;;;;;;;17.97;12.87;;;;;;;;;;5001319;28;20288;-69
2021/03/08 02:49:10;;;;;;;22.07;13.60;;;;;;;;;;4998933;28;20640;-70
2021/03/08 02:51:38;;;;;;;19.07;13.20;;;;;;;;;;5001041;28;20243;-69
2021/03/08 02:54:06;;;;;;;21.30;13.03;;;;;;;;;;5000149;28;20729;-70
2021/03/08 02:56:34;;;;;;;19.10;12.83;;;;;;;;;;4999472;28;20236;-70
2021/03/08 02:59:01;;;;;;;20.10;12.87;;;;;;;;;;5000041;28;20284;-69
2021/03/08 03:01:29;;;;;;;16.93;11.23;;;;;;;;;;5000383;28;20236;-70
2021/03/08 03:03:57;;;;;;;17.57;12.47;;;;;;;;;;4999773;28;20595;-69
2021/03/08 03:06:26;;;;;;;19.50;11.50;;;;;;;;;;5001109;28;20248;-69
2021/03/08 03:08:54;;;;;;;17.93;11.33;;;;;;;;;;4998999;28;20236;-69
2021/03/08 03:11:21;;;;;;;16.53;11.50;;;;;;;;;;4999557;28;20228;-69
2021/03/08 03:13:49;;;;;;;20.30;11.67;;;;;;;;;;5000661;28;20213;-70
2021/03/08 03:16:16;;;;;;;20.90;11.67;;;;;;;;;;4999809;28;20303;-69
2021/03/08 03:18:47;;;;;;;17.47;12.23;;;;;;;;;;4999117;28;20225;-70
2021/03/08 03:21:16;;;;;;;19.60;11.50;;;;;;;;;;5000522;28;20692;-69
2021/03/08 03:23:44;;;;;;;15.67;10.97;;;;;;;;;;4999643;28;20205;-69
2021/03/08 03:26:11;;;;;;;18.93;12.17;;;;;;;;;;4999921;28;20260;-70
2021/03/08 03:28:38;;;;;;;21.97;12.23;;;;;;;;;;4996986;28;20324;-70
2021/03/08 03:31:10;;;;;;;17.77;12.20;;;;;;;;;;4999931;28;20224;-70
2021/03/08 03:33:38;;;;;;;16.37;11.07;;;;;;;;;;4999498;28;20236;-70
2021/03/08 03:36:05;;;;;;;18.13;11.47;;;;;;;;;;4998376;28;20225;-69
2021/03/08 03:38:33;;;;;;;16.87;11.60;;;;;;;;;;4998750;28;20284;-69
2021/03/08 03:41:01;;;;;;;17.63;11.93;;;;;;;;;;5000141;28;20216;-70
2021/03/08 03:43:28;;;;;;;18.77;11.37;;;;;;;;;;4999357;28;20236;-70
2021/03/08 03:45:55;;;;;;;17.73;11.77;;;;;;;;;;4999281;28;20225;-70
2021/03/08 03:48:22;;;;;;;16.63;10.47;;;;;;;;;;4990962;28;20231;-69
2021/03/08 03:50:49;;;;;;;18.47;11.57;;;;;;;;;;4999985;28;20219;-70
2021/03/08 03:53:17;;;;;;;20.60;11.70;;;;;;;;;;5000084;28;20209;-70
2021/03/08 03:55:44;;;;;;;19.97;11.47;;;;;;;;;;4998975;28;20256;-70
2021/03/08 03:58:15;;;;;;;19.70;10.93;;;;;;;;;;4997273;28;20724;-70
2021/03/08 04:00:45;;;;;;;15.87;11.03;;;;;;;;;;4999177;28;20281;-70
2021/03/08 04:03:12;;;;;;;17.77;10.70;;;;;;;;;;4999962;28;20216;-70
2021/03/08 04:05:40;;;;;;;17.17;10.43;;;;;;;;;;4998541;28;20311;-70
2021/03/08 04:08:09;;;;;;;16.30;10.97;;;;;;;;;;4999073;28;20248;-70
2021/03/08 04:10:36;;;;;;;12.87;9.57;;;;;;;;;;4996670;28;20324;-70
2021/03/08 04:13:04;;;;;;;16.23;10.57;;;;;;;;;;4999598;28;20247;-70
2021/03/08 04:15:33;;;;;;;15.70;10.07;;;;;;;;;;4998875;28;20256;-70
2021/03/08 04:18:01;;;;;;;17.03;10.13;;;;;;;;;;4997265;28;20237;-70
2021/03/08 04:20:29;;;;;;;15.53;10.70;;;;;;;;;;4998093;28;20215;-69
2021/03/08 04:22:59;;;;;;;14.23;10.30;;;;;;;;;;4999587;28;20295;-70
2021/03/08 04:25:26;;;;;;;20.47;11.53;;;;;;;;;;4998226;28;20224;-70
2021/03/08 04:27:54;;;;;;;17.40;10.73;;;;;;;;;;4996874;28;20221;-69
2021/03/08 04:30:21;;;;;;;18.20;12.17;;;;;;;;;;4998581;28;20717;-69
2021/03/08 04:32:50;;;;;;;17.00;11.03;;;;;;;;;;4999213;28;20255;-69
2021/03/08 04:35:19;;;;;;;15.57;10.17;;;;;;;;;;4997912;28;20599;-69
2021/03/08 04:37:46;;;;;;;21.00;11.10;;;;;;;;;;4993353;28;20280;-69
2021/03/08 04:40:15;;;;;;;15.50;10.40;;;;;;;;;;4998581;28;20288;-69
2021/03/08 04:42:42;;;;;;;20.37;12.17;;;;;;;;;;4994487;28;20913;-70
2021/03/08 04:45:10;;;;;;;17.93;11.27;;;;;;;;;;4997924;28;20227;-69
2021/03/08 04:47:38;;;;;;;17.57;10.93;;;;;;;;;;4986556;28;20321;-69
2021/03/08 04:50:08;;;;;;;17.43;10.73;;;;;;;;;;4997711;28;20205;-70
2021/03/08 04:52:35;;;;;;;22.60;11.40;;;;;;;;;;4998892;28;20288;-69
2021/03/08 04:55:02;;;;;;;15.83;10.50;;;;;;;;;;4997389;28;20705;-70
2021/03/08 04:57:30;;;;;;;16.67;9.83;;;;;;;;;;4996871;28;20208;-69
2021/03/08 04:59:57;;;;;;;17.97;10.00;;;;;;;;;;4997912;28;20265;-70
2021/03/08 05:02:37;;;;;;;16.70;9.97;;;;;;;;;;4998753;28;20216;-69
2021/03/08 05:05:07;;;;;;;15.30;9.23;;;;;;;;;;4997630;28;20251;-69
2021/03/08 05:07:36;;;;;;;15.87;10.47;;;;;;;;;;4997870;28;20310;-70
2021/03/08 05:10:03;;;;;;;18.07;10.60;;;;;;;;;;4998209;28;20276;-69
2021/03/08 05:12:31;;;;;;;17.27;10.70;;;;;;;;;;4997312;28;20287;-69
2021/03/08 05:14:59;;;;;;;13.93;10.40;;;;;;;;;;4998056;28;20292;-69
2021/03/08 05:17:27;;;;;;;17.17;10.50;;;;;;;;;;4997728;28;20241;-69
2021/03/08 05:19:55;;;;;;;14.50;10.63;;;;;;;;;;4997658;28;20213;-69
2021/03/08 05:22:24;;;;;;;16.43;10.07;;;;;;;;;;4997387;28;20707;-69
2021/03/08 05:24:52;;;;;;;16.53;10.87;;;;;;;;;;4997961;28;20770;-70
2021/03/08 05:27:19;;;;;;;13.40;9.60;;;;;;;;;;4995548;28;20240;-69
2021/03/08 05:29:47;;;;;;;14.40;9.47;;;;;;;;;;4997537;28;20291;-69
2021/03/08 05:32:16;;;;;;;13.60;10.03;;;;;;;;;;4997708;28;20244;-68
2021/03/08 05:34:45;;;;;;;16.63;9.97;;;;;;;;;;4997299;28;20225;-69
2021/03/08 05:37:13;;;;;;;14.70;9.47;;;;;;;;;;4997260;28;20307;-69
2021/03/08 05:39:40;;;;;;;14.20;9.53;;;;;;;;;;4996138;28;20219;-69
2021/03/08 05:42:09;;;;;;;11.57;9.07;;;;;;;;;;4997982;28;20735;-69
2021/03/08 05:44:38;;;;;;;15.60;9.63;;;;;;;;;;4996660;28;20669;-69
2021/03/08 05:47:18;;;;;;;13.23;9.40;;;;;;;;;;4993320;28;20205;-69
2021/03/08 05:49:56;;;;;;;15.13;9.60;;;;;;;;;;4997141;28;20224;-69
2021/03/08 05:52:41;;;;;;;15.43;9.57;;;;;;;;;;4997984;28;20232;-68
2021/03/08 05:55:26;;;;;;;13.80;9.10;;;;;;;;;;4998704;28;20259;-70
2021/03/08 05:58:07;;;;;;;15.67;9.67;;;;;;;;;;5009712;28;20196;-70
2021/03/08 06:00:40;;;;;;;15.37;9.67;;;;;;;;;;5012620;28;20291;-70
2021/03/08 06:03:24;;;;;;;17.90;10.90;;;;;;;;;;5004385;28;20351;-70
2021/03/08 06:06:09;;;;;;;14.43;9.90;;;;;;;;;;5009028;28;20303;-70
2021/03/08 06:08:40;;;;;;;16.47;10.13;;;;;;;;;;4996454;28;20220;-70
2021/03/08 06:11:07;;;;;;;14.20;9.13;;;;;;;;;;4997962;28;20324;-70
2021/03/08 06:13:42;;;;;;;18.63;10.27;;;;;;;;;;4997135;28;20304;-70
2021/03/08 06:16:10;;;;;;;19.97;9.63;;;;;;;;;;5001837;28;20660;-70
2021/03/08 06:18:43;;;;;;;16.13;9.93;;;;;;;;;;4995848;28;20196;-70
2021/03/08 06:21:11;;;;;;;15.57;9.70;;;;;;;;;;5000390;28;20691;-70
2021/03/08 06:23:39;;;;;;;16.27;10.37;;;;;;;;;;4999207;28;20289;-70
2021/03/08 06:26:07;;;;;;;14.67;10.33;;;;;;;;;;5000030;28;20256;-71
2021/03/08 06:28:35;;;;;;;16.87;10.17;;;;;;;;;;4998322;28;20256;-70
2021/03/08 06:31:03;;;;;;;21.50;10.27;;;;;;;;;;4997773;28;20260;-71
2021/03/08 06:33:50;;;;;;;19.90;10.20;;;;;;;;;;4998036;28;20212;-70
2021/03/08 06:36:18;;;;;;;13.30;9.27;;;;;;;;;;4999788;28;20726;-70
2021/03/08 06:38:45;;;;;;;14.20;10.47;;;;;;;;;;4997914;28;20890;-70
2021/03/08 06:41:12;;;;;;;18.30;10.23;;;;;;;;;;4999663;28;20642;-70
2021/03/08 06:43:39;;;;;;;18.00;10.03;;;;;;;;;;4999151;28;20259;-71
2021/03/08 06:46:08;;;;;;;15.43;10.10;;;;;;;;;;4999906;28;20263;-70
2021/03/08 06:48:35;;;;;;;14.80;10.73;;;;;;;;;;4998036;28;20316;-70
2021/03/08 06:51:06;;;;;;;16.07;9.47;;;;;;;;;;4997498;28;20228;-70
2021/03/08 06:53:38;;;;;;;17.13;10.80;;;;;;;;;;4998813;28;20197;-70
2021/03/08 06:56:17;;;;;;;17.27;10.40;;;;;;;;;;4998356;28;20660;-71
2021/03/08 06:58:45;;;;;;;22.73;10.67;;;;;;;;;;4997328;28;20232;-70
2021/03/08 07:01:30;;;;;;;16.00;10.07;;;;;;;;;;5008790;28;20243;-70
2021/03/08 07:04:17;;;;;;;18.23;10.10;;;;;;;;;;5008570;28;20287;-71
2021/03/08 07:06:57;;;;;;;14.83;10.57;;;;;;;;;;5004705;28;20197;-71
2021/03/08 07:09:24;;;;;;;16.77;10.70;;;;;;;;;;5007860;28;20265;-71
2021/03/08 07:12:03;;;;;;;17.53;9.77;;;;;;;;;;5008623;28;20645;-71
2021/03/08 07:14:30;;;;;;;18.37;11.63;;;;;;;;;;5000755;28;20746;-72
2021/03/08 07:16:57;;;;;;;14.90;10.57;;;;;;;;;;4999673;28;20267;-71
2021/03/08 07:19:26;;;;;;;14.77;10.40;;;;;;;;;;4997724;28;20288;-71
2021/03/08 07:21:53;;;;;;;15.23;9.53;;;;;;;;;;4997793;28;20197;-71
2021/03/08 07:24:20;;;;;;;23.03;12.70;;;;;;;;;;4998634;28;20273;-71
2021/03/08 07:26:50;;;;;;;18.63;10.37;;;;;;;;;;4999312;28;20722;-71
2021/03/08 07:29:17;;;;;;;16.30;9.87;;;;;;;;;;4998389;28;20221;-71
2021/03/08 07:31:46;;;;;;;16.10;10.33;;;;;;;;;;4998989;28;20273;-71
2021/03/08 07:34:46;;;;;;;16.60;10.17;;;;;;;;;;4999861;28;20227;-71
2021/03/08 07:37:13;;;;;;;18.00;10.37;;;;;;;;;;5000192;28;20205;-71
2021/03/08 07:39:50;;;;;;;16.03;10.37;;;;;;;;;;4999923;28;20209;-73
2021/03/08 07:42:18;;;;;;;17.80;11.20;;;;;;;;;;5000293;28;20216;-72
2021/03/08 07:44:49;;;;;;;19.43;10.67;;;;;;;;;;4999713;28;20233;-72
2021/03/08 07:47:17;;;;;;;19.97;10.37;;;;;;;;;;5000110;28;20259;-72
2021/03/08 07:49:45;;;;;;;14.60;8.90;;;;;;;;;;4999942;28;20229;-72
2021/03/08 07:52:13;;;;;;;15.73;10.00;;;;;;;;;;5000079;28;20209;-72
2021/03/08 07:54:53;;;;;;;16.83;10.57;;;;;;;;;;4999904;28;20232;-72
2021/03/08 07:57:20;;;;;;;13.70;9.57;;;;;;;;;;5000023;28;20240;-72
2021/03/08 07:59:48;;;;;;;16.07;9.93;;;;;;;;;;5000608;28;20205;-72
2021/03/08 08:02:15;;;;;;;18.10;10.93;;;;;;;;;;5000301;28;20649;-72
2021/03/08 08:05:01;;;;;;;17.10;10.50;;;;;;;;;;4999868;28;20232;-72
2021/03/08 08:07:31;;;;;;;27.57;10.70;;;;;;;;;;4999753;28;20247;-72
2021/03/08 08:10:00;;;;;;;16.73;10.63;;;;;;;;;;4998565;28;20228;-73
2021/03/08 08:12:32;;;;;;;19.00;10.83;;;;;;;;;;4998558;28;20240;-72
2021/03/08 08:15:00;;;;;;;18.50;11.20;;;;;;;;;;4998400;28;20312;-72
2021/03/08 08:17:28;;;;;;;14.40;10.40;;;;;;;;;;4995225;28;20240;-71
2021/03/08 08:19:56;;;;;;;20.97;11.77;;;;;;;;;;4989290;28;20198;-72
2021/03/08 08:22:25;;;;;;;17.40;10.80;;;;;;;;;;4987817;28;20255;-73
2021/03/08 08:24:53;;;;;;;37.23;11.93;;;;;;;;;;4997275;28;20768;-73
2021/03/08 08:27:21;;;;;;;17.53;11.07;;;;;;;;;;4995818;28;20619;-73
2021/03/08 08:29:49;;;;;;;15.50;10.87;;;;;;;;;;4997678;28;20295;-72
2021/03/08 08:32:17;;;;;;;16.80;10.00;;;;;;;;;;4995497;28;20305;-73
2021/03/08 08:34:45;;;;;;;20.60;11.70;;;;;;;;;;4997408;28;20225;-72
2021/03/08 08:37:12;;;;;;;14.60;10.37;;;;;;;;;;4996396;28;20711;-72
2021/03/08 08:40:03;;;;;;;15.93;11.20;;;;;;;;;;5114979;27;20537;-72
2021/03/08 08:42:32;;;;;;;19.27;10.83;;;;;;;;;;5106909;28;20302;-72
2021/03/08 08:44:59;;;;;;;14.43;10.43;;;;;;;;;;5095344;28;20277;-72
2021/03/08 08:47:29;;;;;;;19.50;11.17;;;;;;;;;;5107828;28;20284;-72
2021/03/08 08:49:58;;;;;;;22.57;10.97;;;;;;;;;;5107522;28;20265;-72
2021/03/08 08:52:44;;;;;;;15.77;10.57;;;;;;;;;;5106789;28;20204;-69
2021/03/08 08:55:12;;;;;;;20.50;11.83;;;;;;;;;;5103148;28;20300;-70
2021/03/08 08:58:00;;;;;;;23.60;11.03;;;;;;;;;;5101843;28;20240;-70
2021/03/08 09:00:28;;;;;;;19.67;10.30;;;;;;;;;;5102738;28;20228;-69
2021/03/08 09:02:55;;;;;;;20.93;11.13;;;;;;;;;;5103856;28;20216;-69
2021/03/08 09:05:41;;;;;;;15.83;10.67;;;;;;;;;;5102530;28;20270;-70
2021/03/08 09:08:29;;;;;;;15.13;10.90;;;;;;;;;;5100424;28;20281;-69
2021/03/08 09:10:57;;;;;;;18.43;10.30;;;;;;;;;;5106953;28;20269;-70
2021/03/08 09:13:27;;;;;;;17.57;11.20;;;;;;;;;;5113643;28;20201;-71
2021/03/08 09:15:55;;;;;;;15.13;10.73;;;;;;;;;;5114225;28;20263;-69
2021/03/08 09:18:32;;;;;;;16.87;10.60;;;;;;;;;;5100501;28;20300;-69
2021/03/08 09:21:18;;;;;;;18.13;11.43;;;;;;;;;;5115014;28;20209;-69
2021/03/08 09:23:45;;;;;;;17.27;11.10;;;;;;;;;;5101478;28;20201;-70
2021/03/08 09:26:13;;;;;;;16.77;10.60;;;;;;;;;;5100655;28;20296;-72
2021/03/08 09:28:50;;;;;;;20.73;11.03;;;;;;;;;;5105754;28;20229;-72
2021/03/08 09:31:19;;;;;;;23.93;12.53;;;;;;;;;;5102393;28;20205;-72
2021/03/08 09:33:46;;;;;;;19.63;10.77;;;;;;;;;;5103361;28;20209;-70
2021/03/08 09:36:17;;;;;;;16.23;10.93;;;;;;;;;;5102160;28;20636;-70
2021/03/08 09:38:48;;;;;;;15.50;10.93;;;;;;;;;;5105711;28;20335;-71
2021/03/08 09:41:15;;;;;;;16.60;10.80;;;;;;;;;;5112846;28;20283;-70
2021/03/08 09:43:42;;;;;;;21.83;12.67;;;;;;;;;;5100207;28;20284;-69
2021/03/08 09:46:11;;;;;;;19.37;11.73;;;;;;;;;;5102591;28;20285;-70
2021/03/08 09:48:39;;;;;;;17.80;11.33;;;;;;;;;;5101423;28;20210;-69
2021/03/08 09:51:10;;;;;;;17.03;11.03;;;;;;;;;;5088766;28;20202;-69
2021/03/08 09:53:38;;;;;;;18.63;11.07;;;;;;;;;;5086146;28;20244;-70
2021/03/08 09:56:09;;;;;;;16.57;11.43;;;;;;;;;;5088192;28;20225;-70
2021/03/08 09:58:36;;;;;;;16.87;10.50;;;;;;;;;;5078954;28;20234;-70
2021/03/08 10:01:14;;;;;;;16.33;11.03;;;;;;;;;;5080632;28;20228;-70
2021/03/08 10:03:44;;;;;;;18.83;11.80;;;;;;;;;;5087643;28;20624;-69
2021/03/08 10:06:21;;;;;;;18.97;11.43;;;;;;;;;;5085266;28;20555;-70
2021/03/08 10:08:48;;;;;;;18.07;10.80;;;;;;;;;;5088425;28;20226;-68
2021/03/08 10:11:23;;;;;;;20.07;11.03;;;;;;;;;;5087719;28;20654;-68
2021/03/08 10:13:50;;;;;;;16.23;11.07;;;;;;;;;;5088867;28;20201;-68
2021/03/08 10:16:22;;;;;;;16.43;11.00;;;;;;;;;;5086951;28;20248;-67
2021/03/08 10:18:49;;;;;;;19.23;12.03;;;;;;;;;;5088477;28;20228;-68
2021/03/08 10:21:17;;;;;;;18.07;11.00;;;;;;;;;;5087214;28;20206;-70
2021/03/08 10:23:44;;;;;;;16.20;10.53;;;;;;;;;;5088877;28;21826;-67
2021/03/08 10:26:13;;;;;;;15.60;10.73;;;;;;;;;;5086965;28;20286;-69
2021/03/08 10:28:41;;;;;;;18.80;11.10;;;;;;;;;;5088573;28;20219;-69
2021/03/08 10:31:16;;;;;;;21.53;12.47;;;;;;;;;;5089492;28;20194;-69
2021/03/08 10:33:45;;;;;;;15.93;10.70;;;;;;;;;;5088756;28;20200;-70
2021/03/08 10:36:16;;;;;;;18.50;12.50;;;;;;;;;;5086244;28;20252;-69
2021/03/08 10:38:43;;;;;;;16.30;11.40;;;;;;;;;;5088105;28;20234;-69
2021/03/08 10:41:12;;;;;;;21.70;12.90;;;;;;;;;;5085833;28;20195;-70
2021/03/08 10:43:42;;;;;;;18.53;12.23;;;;;;;;;;5090228;28;20210;-69
2021/03/08 10:46:10;;;;;;;19.57;12.40;;;;;;;;;;5087981;28;20282;-70
2021/03/08 10:48:53;;;;;;;21.00;11.23;;;;;;;;;;5088786;28;20252;-70
2021/03/08 10:51:22;;;;;;;18.47;11.73;;;;;;;;;;5084536;28;20624;-70
2021/03/08 10:53:56;;;;;;;17.77;11.70;;;;;;;;;;5085812;28;20680;-70
2021/03/08 10:56:23;;;;;;;17.77;11.33;;;;;;;;;;5086875;28;20228;-70
2021/03/08 10:58:50;;;;;;;17.80;11.77;;;;;;;;;;5086772;28;20781;-69
2021/03/08 11:01:17;;;;;;;21.73;12.53;;;;;;;;;;5083444;28;20236;-69
2021/03/08 11:03:45;;;;;;;16.50;10.83;;;;;;;;;;5085971;28;20265;-69
2021/03/08 11:06:13;;;;;;;21.10;11.67;;;;;;;;;;5087938;28;20260;-69
2021/03/08 11:08:41;;;;;;;22.57;13.37;;;;;;;;;;5089400;28;20224;-69
2021/03/08 11:11:15;;;;;;;19.37;12.23;;;;;;;;;;5086615;28;20247;-69
2021/03/08 11:13:42;;;;;;;19.03;12.93;;;;;;;;;;5086242;28;20653;-70
2021/03/08 11:16:10;;;;;;;18.93;11.70;;;;;;;;;;5085539;28;20217;-68
2021/03/08 11:18:37;;;;;;;17.97;11.80;;;;;;;;;;5084596;28;20707;-67
2021/03/08 11:21:24;;;;;;;17.20;11.70;;;;;;;;;;5086360;28;20536;-70
2021/03/08 11:23:52;;;;;;;18.30;11.57;;;;;;;;;;5086631;28;20605;-70
2021/03/08 11:26:21;;;;;;;20.43;11.30;;;;;;;;;;5083967;28;20194;-70
2021/03/08 11:28:48;;;;;;;22.20;12.37;;;;;;;;;;5084915;28;20624;-68
2021/03/08 11:31:19;;;;;;;18.13;12.57;;;;;;;;;;5087362;28;20190;-70
2021/03/08 11:33:48;;;;;;;18.43;11.43;;;;;;;;;;5076380;28;20205;-70
2021/03/08 11:36:15;;;;;;;15.97;11.47;;;;;;;;;;5087309;28;20768;-67
2021/03/08 11:38:48;;;;;;;17.57;11.23;;;;;;;;;;5086901;28;20254;-69
2021/03/08 11:41:17;;;;;;;20.60;10.97;;;;;;;;;;5086573;28;20251;-69
2021/03/08 11:43:44;;;;;;;18.27;11.07;;;;;;;;;;5083437;28;20259;-69
2021/03/08 11:46:12;;;;;;;14.47;10.77;;;;;;;;;;5084362;28;20225;-69
2021/03/08 11:48:39;;;;;;;23.33;11.77;;;;;;;;;;5081878;28;20209;-70
2021/03/08 11:51:07;;;;;;;22.67;12.27;;;;;;;;;;5098356;28;20210;-70
2021/03/08 11:53:36;;;;;;;20.20;11.27;;;;;;;;;;5083862;28;20229;-70
2021/03/08 11:56:03;;;;;;;17.60;10.77;;;;;;;;;;5077409;28;20628;-71
2021/03/08 11:58:31;;;;;;;14.90;10.47;;;;;;;;;;5077602;28;20654;-70
2021/03/08 12:00:59;;;;;;;15.20;10.77;;;;;;;;;;5077973;28;20213;-69
2021/03/08 12:03:26;;;;;;;17.67;10.63;;;;;;;;;;5077619;28;20692;-70
2021/03/08 12:05:53;;;;;;;24.57;11.47;;;;;;;;;;5081432;28;20748;-70
2021/03/08 12:08:26;;;;;;;17.37;10.27;;;;;;;;;;5095615;28;20236;-70
2021/03/08 12:10:53;;;;;;;16.20;11.23;;;;;;;;;;5095997;28;20259;-69
2021/03/08 12:13:21;;;;;;;14.37;10.43;;;;;;;;;;5097673;28;20213;-70
2021/03/08 12:15:51;;;;;;;16.73;10.87;;;;;;;;;;5097943;28;20320;-71
2021/03/08 12:18:18;;;;;;;16.53;10.37;;;;;;;;;;5097545;28;20278;-70
2021/03/08 12:20:45;;;;;;;15.07;10.57;;;;;;;;;;5086092;28;20205;-70
2021/03/08 12:23:13;;;;;;;16.77;10.60;;;;;;;;;;5085608;28;20669;-70
2021/03/08 12:25:40;;;;;;;16.00;10.40;;;;;;;;;;5083997;28;20275;-70
2021/03/08 12:28:07;;;;;;;20.10;11.13;;;;;;;;;;5085664;28;20201;-70
2021/03/08 12:30:34;;;;;;;15.40;10.10;;;;;;;;;;5085409;28;20604;-70
2021/03/08 12:33:02;;;;;;;16.37;10.50;;;;;;;;;;5086286;28;20200;-70
2021/03/08 12:35:30;;;;;;;15.10;9.60;;;;;;;;;;5085117;28;20226;-69
2021/03/08 12:37:57;;;;;;;18.20;9.93;;;;;;;;;;5079930;28;20257;-71
2021/03/08 12:40:24;;;;;;;15.73;9.97;;;;;;;;;;5089026;28;20645;-71
2021/03/08 12:42:51;;;;;;;12.40;9.30;;;;;;;;;;5097229;28;20240;-71
2021/03/08 12:45:18;;;;;;;13.90;9.87;;;;;;;;;;5097673;28;20293;-70
2021/03/08 12:47:45;;;;;;;16.07;8.77;;;;;;;;;;5082106;28;20306;-72
2021/03/08 12:50:14;;;;;;;18.83;9.57;;;;;;;;;;5089019;28;20202;-72
2021/03/08 12:52:41;;;;;;;17.23;9.70;;;;;;;;;;5077748;28;20292;-72
2021/03/08 12:55:09;;;;;;;14.67;9.27;;;;;;;;;;5085417;28;20228;-73
2021/03/08 12:57:36;;;;;;;12.63;9.47;;;;;;;;;;5085266;28;20241;-73
2021/03/08 13:00:04;;;;;;;13.20;9.53;;;;;;;;;;5090062;28;20339;-73
2021/03/08 13:02:32;;;;;;;10.87;8.77;;;;;;;;;;5077077;28;20197;-73
2021/03/08 13:04:59;;;;;;;17.30;9.10;;;;;;;;;;5077213;28;20241;-72
2021/03/08 13:07:27;;;;;;;12.13;8.10;;;;;;;;;;5081708;28;20205;-72
2021/03/08 13:09:54;;;;;;;14.27;9.17;;;;;;;;;;5096120;28;20202;-72
2021/03/08 13:12:21;;;;;;;11.57;8.47;;;;;;;;;;5079316;28;20201;-74
2021/03/08 13:14:48;;;;;;;15.40;7.70;;;;;;;;;;5085144;28;20721;-72
2021/03/08 13:17:33;;;;;;;11.70;7.43;;;;;;;;;;5084050;28;20202;-74
2021/03/08 13:20:01;;;;;;;13.80;9.13;;;;;;;;;;5084521;28;20256;-73
2021/03/08 13:22:29;;;;;;;13.80;9.53;;;;;;;;;;5084255;28;20225;-72
2021/03/08 13:24:56;;;;;;;15.77;8.50;;;;;;;;;;5085656;28;20222;-74
2021/03/08 13:27:23;;;;;;;13.53;8.07;;;;;;;;;;5087918;28;20285;-74
2021/03/08 13:29:52;;;;;;;12.30;8.30;;;;;;;;;;5088586;28;20225;-74
2021/03/08 13:32:22;;;;;;;10.20;7.87;;;;;;;;;;5087156;28;20227;-74
2021/03/08 13:34:50;;;;;;;11.83;7.47;;;;;;;;;;5089163;28;20722;-73
2021/03/08 13:37:17;;;;;;;13.07;7.93;;;;;;;;;;5087949;28;20229;-73
2021/03/08 13:39:45;;;;;;;11.03;8.10;;;;;;;;;;5088651;28;20416;-73
2021/03/08 13:42:12;;;;;;;10.97;8.10;;;;;;;;;;5078788;28;20237;-73
2021/03/08 13:44:39;;;;;;;17.23;9.47;;;;;;;;;;5079699;28;20268;-72
2021/03/08 13:47:06;;;;;;;13.83;8.03;;;;;;;;;;5086939;28;20233;-73
2021/03/08 13:49:33;;;;;;;14.33;7.77;;;;;;;;;;5089863;28;20191;-72
2021/03/08 13:52:00;;;;;;;16.00;9.00;;;;;;;;;;5086521;28;20301;-74
2021/03/08 13:54:27;;;;;;;12.67;7.97;;;;;;;;;;5086674;28;20246;-74
2021/03/08 13:56:58;;;;;;;12.17;7.83;;;;;;;;;;5081111;28;20281;-72
2021/03/08 13:59:36;;;;;;;12.80;7.67;;;;;;;;;;5091645;28;20305;-72
2021/03/08 14:02:03;;;;;;;11.53;6.73;;;;;;;;;;5079829;28;20241;-74
2021/03/08 14:04:31;;;;;;;14.00;7.20;;;;;;;;;;5088071;28;20256;-74
2021/03/08 14:06:58;;;;;;;12.90;7.40;;;;;;;;;;5098905;28;20240;-74
2021/03/08 14:09:25;;;;;;;10.77;6.97;;;;;;;;;;5079619;28;20712;-73
2021/03/08 14:11:52;;;;;;;11.97;7.37;;;;;;;;;;5079426;28;20210;-74
2021/03/08 14:14:20;;;;;;;13.50;8.27;;;;;;;;;;5086243;28;20221;-74
2021/03/08 14:16:47;;;;;;;12.70;8.30;;;;;;;;;;5099010;28;20261;-74
2021/03/08 14:19:14;;;;;;;13.27;8.87;;;;;;;;;;5091184;28;20646;-74
2021/03/08 14:21:41;;;;;;;15.00;7.73;;;;;;;;;;5079651;28;20326;-74
2021/03/08 14:24:09;;;;;;;13.53;7.47;;;;;;;;;;5096072;28;20227;-75
2021/03/08 14:26:36;;;;;;;12.00;6.97;;;;;;;;;;5099620;28;20681;-75
2021/03/08 14:29:04;;;;;;;18.57;8.13;;;;;;;;;;5096900;28;20219;-75
2021/03/08 14:31:32;;;;;;;14.10;8.13;;;;;;;;;;5086606;28;20221;-73
2021/03/08 14:33:59;;;;;;;14.10;8.13;;;;;;;;;;5085033;28;20261;-74
2021/03/08 14:36:27;;;;;;;12.57;7.60;;;;;;;;;;5088173;28;20201;-74